Time;durP1;ratioP1;P1;durP2;ratioP2;P2;SDS_P1;SDS_P2;PMS_P1;PMS_P2;Temp;Humidity;BMP_temperature;BMP_pressure;BME280_temperature;BME280_humidity;BME280_pressure;Samples;Min_cycle;Max_cycle;Signal;HPM_P1;HPM_P2
2021/11/20 00:00:59;;;;;;;41.92;19.10;;;;;;;8.30;100.00;100110.47;5044868;28;20035;-67
2021/11/20 00:03:25;;;;;;;36.30;17.17;;;;;;;8.31;100.00;100110.50;5045021;28;20068;-67
2021/11/20 00:05:52;;;;;;;43.83;18.63;;;;;;;8.31;100.00;100115.75;5044801;28;20029;-67
2021/11/20 00:08:20;;;;;;;35.17;18.48;;;;;;;8.31;100.00;100118.38;5044719;28;20021;-67
2021/11/20 00:10:49;;;;;;;38.00;19.23;;;;;;;8.37;100.00;100112.31;5044948;28;20029;-67
2021/11/20 00:13:15;;;;;;;35.88;18.90;;;;;;;8.32;100.00;100104.38;5044636;28;20032;-67
2021/11/20 00:15:45;;;;;;;42.08;20.67;;;;;;;8.28;100.00;100102.59;5044451;28;20049;-67
2021/11/20 00:18:11;;;;;;;33.90;17.48;;;;;;;8.31;100.00;100101.75;5044764;28;20378;-67
2021/11/20 00:20:45;;;;;;;37.20;18.23;;;;;;;8.24;100.00;100100.78;5044127;28;20049;-67
2021/11/20 00:23:10;;;;;;;33.63;17.55;;;;;;;8.27;100.00;100094.69;5044753;28;20026;-67
2021/11/20 00:25:44;;;;;;;38.45;19.08;;;;;;;8.23;100.00;100098.16;5044433;28;20029;-67
2021/11/20 00:28:16;;;;;;;39.50;19.83;;;;;;;8.27;100.00;100100.84;5044700;28;20017;-67
2021/11/20 00:30:57;;;;;;;41.47;18.92;;;;;;;8.26;100.00;100099.06;5044653;28;20025;-67
2021/11/20 00:33:26;;;;;;;40.85;18.77;;;;;;;8.26;100.00;100095.56;5044294;28;20017;-67
2021/11/20 00:35:55;;;;;;;35.55;17.75;;;;;;;8.19;100.00;100086.69;5044282;28;20029;-67
2021/11/20 00:38:22;;;;;;;36.85;19.23;;;;;;;8.18;100.00;100094.53;5044149;28;20041;-67
2021/11/20 00:40:52;;;;;;;35.08;19.10;;;;;;;8.13;100.00;100081.34;5044221;28;20103;-67
2021/11/20 00:43:19;;;;;;;40.20;19.67;;;;;;;8.16;100.00;100081.41;5044444;28;20245;-67
2021/11/20 00:45:46;;;;;;;42.53;20.00;;;;;;;8.22;100.00;100084.16;5044098;28;20080;-67
2021/11/20 00:48:13;;;;;;;42.35;19.75;;;;;;;8.20;100.00;100083.19;5044073;28;20025;-67
2021/11/20 00:50:40;;;;;;;39.78;20.38;;;;;;;8.23;100.00;100077.16;5044142;28;20045;-67
2021/11/20 00:53:06;;;;;;;44.95;21.73;;;;;;;8.28;100.00;100081.59;5044020;28;20029;-67
2021/11/20 00:55:33;;;;;;;35.90;18.75;;;;;;;8.22;100.00;100076.28;5043980;28;20071;-67
2021/11/20 00:57:59;;;;;;;35.00;16.98;;;;;;;8.20;100.00;100069.22;5043894;28;20029;-67
2021/11/20 01:00:29;;;;;;;38.92;17.60;;;;;;;8.21;100.00;100074.50;5043935;28;20025;-67
2021/11/20 01:02:55;;;;;;;37.58;19.10;;;;;;;8.26;100.00;100075.44;5043913;28;20041;-67
2021/11/20 01:05:20;;;;;;;43.47;20.13;;;;;;;8.24;100.00;100079.81;5043965;28;20033;-67
2021/11/20 01:07:47;;;;;;;42.42;20.10;;;;;;;8.18;100.00;100074.44;5043920;28;20031;-67
2021/11/20 01:10:16;;;;;;;41.78;20.38;;;;;;;8.13;100.00;100070.88;5043835;28;20025;-67
2021/11/20 01:12:42;;;;;;;38.58;19.38;;;;;;;8.22;100.00;100073.66;5043732;28;20048;-67
2021/11/20 01:15:16;;;;;;;38.92;17.83;;;;;;;8.11;100.00;100064.75;5043674;28;20296;-67
2021/11/20 01:17:41;;;;;;;30.13;16.17;;;;;;;8.13;100.00;100073.50;5044039;28;20021;-67
2021/11/20 01:20:09;;;;;;;40.33;18.48;;;;;;;8.17;100.00;100072.66;5043679;28;20212;-67
2021/11/20 01:22:35;;;;;;;40.78;19.42;;;;;;;8.13;100.00;100070.88;5043671;28;20105;-67
2021/11/20 01:25:00;;;;;;;33.90;18.50;;;;;;;8.21;100.00;100069.25;5043750;28;20100;-67
2021/11/20 01:27:26;;;;;;;48.42;22.05;;;;;;;8.18;100.00;100069.19;5043741;28;20037;-67
2021/11/20 01:30:02;;;;;;;44.83;21.05;;;;;;;8.18;100.00;100063.97;5043722;28;20076;-67
2021/11/20 01:32:35;;;;;;;35.47;19.35;;;;;;;8.07;100.00;100070.78;5046144;28;20045;-67
2021/11/20 01:35:00;;;;;;;34.95;17.08;;;;;;;8.12;100.00;100061.25;5047704;28;20232;-67
2021/11/20 01:37:26;;;;;;;31.33;17.67;;;;;;;8.16;100.00;100060.41;5047586;28;20029;-67
2021/11/20 01:39:51;;;;;;;31.70;17.17;;;;;;;8.09;100.00;100048.09;5047452;28;20099;-67
2021/11/20 01:42:23;;;;;;;42.50;19.98;;;;;;;8.07;100.00;100044.56;5047476;28;20032;-67
2021/11/20 01:45:02;;;;;;;39.47;19.45;;;;;;;8.01;100.00;100041.84;5047743;28;20021;-67
2021/11/20 01:47:32;;;;;;;36.10;17.85;;;;;;;8.00;100.00;100047.97;5047376;28;20071;-67
2021/11/20 01:50:20;;;;;;;36.83;18.10;;;;;;;8.02;100.00;100046.25;5047617;28;20220;-67
2021/11/20 01:53:05;;;;;;;37.88;18.85;;;;;;;7.99;100.00;100040.09;5047315;28;20032;-67
2021/11/20 01:55:41;;;;;;;36.50;17.15;;;;;;;8.02;100.00;100040.13;5047302;28;20021;-67
2021/11/20 01:58:20;;;;;;;35.05;16.75;;;;;;;8.02;100.00;100033.16;5047177;28;20025;-67
2021/11/20 02:01:02;;;;;;;33.15;17.60;;;;;;;7.97;100.00;100033.94;5047182;28;20255;-67
2021/11/20 02:03:55;;;;;;;36.57;17.90;;;;;;;7.75;100.00;100024.03;5047103;28;20021;-67
2021/11/20 02:06:32;;;;;;;35.92;18.40;;;;;;;7.83;100.00;100020.66;5047148;28;20317;-67
2021/11/20 02:08:57;;;;;;;40.13;18.98;;;;;;;7.82;100.00;100016.25;5047110;28;20029;-67
2021/11/20 02:11:29;;;;;;;40.93;18.83;;;;;;;7.80;100.00;100018.00;5046957;28;20363;-67
2021/11/20 02:13:55;;;;;;;38.78;19.10;;;;;;;7.80;100.00;100018.00;5046947;28;20071;-67
2021/11/20 02:16:28;;;;;;;32.47;16.35;;;;;;;7.74;100.00;100017.91;5046877;28;20100;-67
2021/11/20 02:18:57;;;;;;;33.60;16.30;;;;;;;7.80;100.00;100015.38;5046831;28;20010;-67
2021/11/20 02:21:32;;;;;;;31.73;16.77;;;;;;;7.76;100.00;100018.81;5046774;28;20033;-67
2021/11/20 02:23:58;;;;;;;32.80;16.58;;;;;;;7.77;100.00;100012.72;5046762;28;20037;-67
2021/11/20 02:26:23;;;;;;;31.77;17.20;;;;;;;7.80;100.00;100006.63;5046707;28;20394;-67
2021/11/20 02:28:50;;;;;;;34.63;17.17;;;;;;;7.67;100.00;100005.59;5046654;28;20097;-67
2021/11/20 02:31:16;;;;;;;33.90;16.35;;;;;;;7.62;100.00;100001.13;5046577;28;20075;-67
2021/11/20 02:33:44;;;;;;;28.25;15.30;;;;;;;7.62;100.00;99991.53;5046503;28;20028;-67
2021/11/20 02:36:12;;;;;;;33.35;16.30;;;;;;;7.65;100.00;99995.91;5046472;28;20033;-67
2021/11/20 02:38:46;;;;;;;30.90;15.85;;;;;;;7.57;100.00;99987.09;5046373;28;20048;-67
2021/11/20 02:41:15;;;;;;;31.80;15.30;;;;;;;7.47;100.00;99986.06;5046459;28;20029;-67
2021/11/20 02:43:44;;;;;;;29.40;15.35;;;;;;;7.37;100.00;99988.56;5046067;28;20041;-67
2021/11/20 02:46:12;;;;;;;35.20;15.98;;;;;;;7.41;100.00;99980.78;5046309;28;20032;-67
2021/11/20 02:48:38;;;;;;;36.33;16.67;;;;;;;7.33;100.00;99992.84;5046270;28;20021;-67
2021/11/20 02:51:11;;;;;;;27.65;15.05;;;;;;;7.35;100.00;99979.78;5046317;28;20390;-67
2021/11/20 02:53:46;;;;;;;35.30;15.32;;;;;;;7.28;100.00;99973.56;5046473;28;20025;-67
2021/11/20 02:56:17;;;;;;;36.80;16.30;;;;;;;7.24;100.00;99963.91;5046076;28;20093;-67
2021/11/20 02:58:42;;;;;;;26.75;13.25;;;;;;;7.19;100.00;99957.75;5046331;28;20025;-67
2021/11/20 03:01:10;;;;;;;35.92;16.63;;;;;;;7.12;100.00;99963.72;5046059;28;20021;-67
2021/11/20 03:03:35;;;;;;;27.95;14.10;;;;;;;7.10;100.00;99952.34;5045863;28;20044;-67
2021/11/20 03:06:01;;;;;;;31.55;15.98;;;;;;;7.05;100.00;99951.38;5045975;28;20225;-67
2021/11/20 03:08:26;;;;;;;29.08;15.60;;;;;;;6.96;100.00;99943.38;5045911;28;20029;-67
2021/11/20 03:10:53;;;;;;;31.92;15.23;;;;;;;7.03;100.00;99939.16;5046138;28;20064;-67
2021/11/20 03:13:19;;;;;;;25.85;12.32;;;;;;;6.94;100.00;99942.50;5045883;28;20094;-67
2021/11/20 03:15:45;;;;;;;26.73;12.52;;;;;;;6.95;100.00;99952.09;5045666;28;20064;-67
2021/11/20 03:18:10;;;;;;;21.83;12.07;;;;;;;6.93;100.00;99943.34;5045660;28;20041;-67
2021/11/20 03:20:37;;;;;;;25.42;13.68;;;;;;;6.85;100.00;99944.97;5045723;28;20225;-67
2021/11/20 03:23:25;;;;;;;26.98;13.73;;;;;;;6.74;100.00;99941.28;5045613;28;20339;-67
2021/11/20 03:25:50;;;;;;;27.27;14.30;;;;;;;6.81;100.00;99937.94;5045718;28;20029;-67
2021/11/20 03:28:16;;;;;;;29.08;14.65;;;;;;;6.83;100.00;99933.59;5045521;28;20092;-67
2021/11/20 03:30:41;;;;;;;27.58;14.02;;;;;;;6.72;100.00;99931.66;5045793;28;20252;-67
2021/11/20 03:33:07;;;;;;;33.67;14.73;;;;;;;6.60;100.00;99932.34;5045358;28;20029;-67
2021/11/20 03:35:34;;;;;;;31.27;15.68;;;;;;;6.70;100.00;99929.00;5045388;28;20025;-67
2021/11/20 03:37:59;;;;;;;30.17;15.75;;;;;;;6.69;100.00;99922.03;5045304;28;20100;-67
2021/11/20 03:40:25;;;;;;;28.77;14.50;;;;;;;6.67;100.00;99918.50;5045306;28;20044;-67
2021/11/20 03:42:51;;;;;;;29.48;13.93;;;;;;;6.65;100.00;99930.69;5045271;28;20363;-67
2021/11/20 03:45:20;;;;;;;36.72;17.30;;;;;;;6.59;100.00;99948.91;5045224;28;20025;-67
2021/11/20 03:47:46;;;;;;;34.33;15.55;;;;;;;6.61;100.00;99950.69;5045317;28;20325;-67
2021/11/20 03:50:13;;;;;;;31.05;14.20;;;;;;;6.72;100.00;99933.41;5045094;28;20024;-67
2021/11/20 03:52:41;;;;;;;47.35;16.83;;;;;;;6.80;100.00;99936.16;5045075;28;20217;-67
2021/11/20 03:55:07;;;;;;;55.30;17.75;;;;;;;6.85;100.00;99944.97;5044351;28;20021;-67
2021/11/20 03:57:32;;;;;;;36.58;13.77;;;;;;;6.80;100.00;99948.38;5045070;28;20029;-67
2021/11/20 03:59:58;;;;;;;58.63;15.88;;;;;;;6.78;100.00;99948.34;5044857;28;20229;-67
2021/11/20 04:02:23;;;;;;;96.05;17.38;;;;;;;6.72;100.00;99941.25;5045126;28;20029;-67
2021/11/20 04:04:49;;;;;;;264.85;18.88;;;;;;;6.75;100.00;99948.28;5044771;28;20088;-67
2021/11/20 04:07:14;;;;;;;63.97;18.27;;;;;;;6.70;100.00;99947.31;5045055;28;20017;-67
2021/11/20 04:09:40;;;;;;;41.28;16.60;;;;;;;6.76;100.00;99939.59;5044995;28;20013;-67
2021/11/20 04:12:06;;;;;;;75.38;17.23;;;;;;;6.77;100.00;99943.94;5044665;28;20025;-67
2021/11/20 04:14:31;;;;;;;92.22;16.23;;;;;;;6.76;100.00;99938.69;5044716;28;20354;-67
2021/11/20 04:16:57;;;;;;;48.47;17.65;;;;;;;6.83;100.00;99930.97;5044669;28;20029;-67
2021/11/20 04:19:23;;;;;;;86.30;16.13;;;;;;;6.76;100.00;99939.59;5044506;28;20029;-67
2021/11/20 04:21:48;;;;;;;45.28;17.80;;;;;;;6.82;100.00;99934.44;5044573;28;20021;-67
2021/11/20 04:24:15;;;;;;;64.15;16.70;;;;;;;6.84;100.00;99935.38;5044499;28;20037;-67
2021/11/20 04:26:41;;;;;;;60.47;15.63;;;;;;;6.80;100.00;99930.91;5044423;28;20316;-67
2021/11/20 04:29:06;;;;;;;49.10;16.15;;;;;;;6.88;100.00;99934.56;5044679;28;20056;-67
2021/11/20 04:31:32;;;;;;;47.38;13.00;;;;;;;6.89;100.00;99925.84;5044386;28;20029;-67
2021/11/20 04:33:57;;;;;;;40.80;14.10;;;;;;;6.90;100.00;99937.19;5044274;28;20025;-67
2021/11/20 04:36:24;;;;;;;46.72;15.80;;;;;;;6.81;100.00;99943.16;5044323;28;20025;-67
2021/11/20 04:38:50;;;;;;;60.13;17.20;;;;;;;6.68;100.00;99926.38;5044445;28;20100;-67
2021/11/20 04:41:16;;;;;;;48.85;15.48;;;;;;;6.69;100.00;99940.34;5044233;28;20224;-67
2021/11/20 04:43:43;;;;;;;78.55;15.15;;;;;;;6.69;100.00;99927.25;5044221;28;20021;-67
2021/11/20 04:46:10;;;;;;;108.00;17.70;;;;;;;6.55;100.00;99928.75;5044159;28;20021;-67
2021/11/20 04:48:35;;;;;;;104.47;15.88;;;;;;;6.51;100.00;99934.78;5044116;28;20025;-67
2021/11/20 04:51:01;;;;;;;45.85;14.77;;;;;;;6.48;100.00;99932.13;5044088;28;20045;-67
2021/11/20 04:53:28;;;;;;;66.93;12.60;;;;;;;6.46;100.00;99941.69;5044338;28;20092;-67
2021/11/20 04:55:57;;;;;;;37.95;12.70;;;;;;;6.49;100.00;99939.13;5044010;28;20020;-67
2021/11/20 04:58:23;;;;;;;120.25;14.52;;;;;;;6.36;100.00;99948.47;5043922;28;20021;-67
2021/11/20 05:00:50;;;;;;;28.70;13.10;;;;;;;6.37;100.00;99934.53;5043978;28;20028;-67
2021/11/20 05:03:16;;;;;;;32.80;10.82;;;;;;;6.48;100.00;99942.59;5043816;28;20033;-67
2021/11/20 05:05:45;;;;;;;60.83;10.98;;;;;;;6.36;100.00;99942.38;5043868;28;20320;-67
2021/11/20 05:08:11;;;;;;;39.63;12.07;;;;;;;6.31;100.00;99934.47;5043886;28;20032;-67
2021/11/20 05:10:38;;;;;;;24.35;9.75;;;;;;;6.43;100.00;99949.47;5043854;28;20021;-67
2021/11/20 05:13:04;;;;;;;33.95;10.45;;;;;;;6.45;100.00;99937.28;5043724;28;20025;-67
2021/11/20 05:15:30;;;;;;;55.78;9.98;;;;;;;6.33;100.00;99937.09;5043647;28;20069;-67
2021/11/20 05:17:55;;;;;;;122.78;11.93;;;;;;;6.19;100.00;99935.94;5043739;28;20025;-67
2021/11/20 05:20:21;;;;;;;97.43;11.30;;;;;;;6.14;100.00;99940.22;5043792;28;20067;-67
2021/11/20 05:22:46;;;;;;;33.20;10.35;;;;;;;6.22;100.00;99938.63;5043759;28;20052;-67
2021/11/20 05:25:14;;;;;;;20.40;7.93;;;;;;;6.18;100.00;99942.03;5043725;28;20198;-67
2021/11/20 05:27:42;;;;;;;57.17;9.05;;;;;;;6.09;100.00;99937.53;5043708;28;20025;-67
2021/11/20 05:30:16;;;;;;;33.95;7.95;;;;;;;6.02;100.00;99940.84;5043687;28;20088;-67
2021/11/20 05:32:43;;;;;;;59.53;8.90;;;;;;;6.05;100.00;99937.44;5043691;28;20025;-67
2021/11/20 05:35:09;;;;;;;29.35;8.65;;;;;;;5.87;100.00;99930.13;5043891;28;20190;-67
2021/11/20 05:37:34;;;;;;;14.52;7.38;;;;;;;5.99;100.00;99925.13;5043632;28;20035;-67
2021/11/20 05:40:03;;;;;;;52.50;7.90;;;;;;;5.93;100.00;99913.69;5043550;28;20321;-67
2021/11/20 05:42:28;;;;;;;22.15;7.25;;;;;;;5.89;100.00;99914.47;5043573;28;20025;-67
2021/11/20 05:44:53;;;;;;;20.00;7.40;;;;;;;5.88;100.00;99910.06;5043597;28;20273;-67
2021/11/20 05:47:18;;;;;;;63.75;7.68;;;;;;;5.77;100.00;99916.81;5043534;28;20033;-67
2021/11/20 05:49:45;;;;;;;59.85;7.78;;;;;;;5.72;100.00;99916.72;5043783;28;20025;-67
2021/11/20 05:52:12;;;;;;;36.38;7.65;;;;;;;5.68;100.00;99917.50;5043497;28;20347;-67
2021/11/20 05:54:38;;;;;;;47.05;6.35;;;;;;;5.68;100.00;99912.28;5043394;28;20029;-67
2021/11/20 05:57:04;;;;;;;43.92;7.40;;;;;;;5.63;100.00;99924.34;5043696;28;20025;-67
2021/11/20 05:59:29;;;;;;;29.35;6.35;;;;;;;5.59;100.00;99916.41;5043315;28;20053;-67
2021/11/20 06:01:55;;;;;;;33.45;7.25;;;;;;;5.64;100.00;99917.41;5042248;28;20022;-67
2021/11/20 06:04:20;;;;;;;33.63;7.63;;;;;;;5.56;100.00;99921.56;5043320;28;20029;-67
2021/11/20 06:06:46;;;;;;;14.13;6.68;;;;;;;5.62;100.00;99926.94;5043350;28;20025;-67
2021/11/20 06:09:12;;;;;;;29.23;6.68;;;;;;;5.53;100.00;99932.84;5043323;28;20022;-67
2021/11/20 06:11:37;;;;;;;17.08;5.63;;;;;;;5.61;100.00;99919.97;5043305;28;20053;-67
2021/11/20 06:14:04;;;;;;;11.43;5.45;;;;;;;5.58;100.00;99930.34;5043285;28;20052;-67
2021/11/20 06:16:29;;;;;;;7.72;4.35;;;;;;;5.61;100.00;99935.63;5043186;28;20155;-67
2021/11/20 06:18:55;;;;;;;10.80;4.00;;;;;;;5.57;100.00;99939.91;5046144;28;20325;-67
2021/11/20 06:21:20;;;;;;;16.00;5.18;;;;;;;5.53;100.00;99927.63;5046822;28;20321;-67
2021/11/20 06:23:45;;;;;;;19.20;5.35;;;;;;;5.41;100.00;99931.72;5046776;28;20032;-67
2021/11/20 06:26:11;;;;;;;42.13;5.85;;;;;;;5.32;100.00;99915.84;5046972;28;20028;-67
2021/11/20 06:28:37;;;;;;;27.08;4.80;;;;;;;5.36;100.00;99915.06;5046677;28;20021;-67
2021/11/20 06:31:04;;;;;;;11.85;5.40;;;;;;;5.25;100.00;99909.59;5046644;28;20067;-67
2021/11/20 06:33:29;;;;;;;45.20;6.60;;;;;;;5.32;100.00;99923.69;5046640;28;20032;-67
2021/11/20 06:35:56;;;;;;;13.20;5.65;;;;;;;5.38;100.00;99921.22;5046614;28;20025;-67
2021/11/20 06:38:22;;;;;;;14.35;5.30;;;;;;;5.26;100.00;99910.50;5046412;28;20036;-67
2021/11/20 06:40:51;;;;;;;26.55;5.65;;;;;;;5.16;100.00;99925.06;5046481;28;20084;-67
2021/11/20 06:43:22;;;;;;;25.23;5.43;;;;;;;5.16;100.00;99939.84;5046378;28;20221;-67
2021/11/20 06:45:49;;;;;;;61.78;7.30;;;;;;;5.09;100.00;99948.41;5046389;28;20021;-67
2021/11/20 06:48:15;;;;;;;22.92;6.38;;;;;;;5.16;100.00;99943.31;5046338;28;20088;-67
2021/11/20 06:50:42;;;;;;;21.67;6.68;;;;;;;5.21;100.00;99959.09;5046323;28;20088;-67
2021/11/20 06:53:10;;;;;;;23.15;5.80;;;;;;;5.19;100.00;99939.94;5046198;28;20049;-67
2021/11/20 06:55:36;;;;;;;16.65;6.30;;;;;;;5.20;100.00;99952.13;5046200;28;20025;-67
2021/11/20 06:58:20;;;;;;;19.35;6.22;;;;;;;5.15;100.00;99958.94;5046313;28;20378;-67
2021/11/20 07:00:57;;;;;;;20.25;5.32;;;;;;;5.13;100.00;99955.44;5046412;28;20052;-67
2021/11/20 07:03:39;;;;;;;8.05;4.70;;;;;;;5.12;100.00;99945.88;5045992;28;20060;-67
2021/11/20 07:06:18;;;;;;;25.80;5.82;;;;;;;4.98;100.00;99949.84;5046044;28;20093;-67
2021/11/20 07:08:46;;;;;;;28.52;5.90;;;;;;;4.95;100.00;99949.78;5046014;28;20049;-67
2021/11/20 07:11:12;;;;;;;73.15;6.22;;;;;;;4.90;100.00;99956.63;5046166;28;20367;-67
2021/11/20 07:13:38;;;;;;;56.47;6.25;;;;;;;4.87;100.00;99957.44;5045842;28;20084;-67
2021/11/20 07:16:03;;;;;;;41.72;5.30;;;;;;;4.99;100.00;99949.00;5045680;28;20083;-67
2021/11/20 07:18:29;;;;;;;25.33;4.45;;;;;;;4.95;100.00;99965.44;5046016;28;20021;-67
2021/11/20 07:20:54;;;;;;;92.95;5.45;;;;;;;5.01;100.00;99960.38;5045699;28;20037;-67
2021/11/20 07:23:20;;;;;;;29.38;4.95;;;;;;;5.14;100.00;99944.16;5045747;28;20317;-67
2021/11/20 07:25:45;;;;;;;38.20;5.60;;;;;;;5.15;100.00;99953.72;5045622;28;20229;-67
2021/11/20 07:28:11;;;;;;;70.05;5.63;;;;;;;5.08;100.00;99949.22;5045417;28;20040;-67
2021/11/20 07:30:39;;;;;;;52.53;8.65;;;;;;;4.95;100.00;99944.56;5044628;28;20040;-67
2021/11/20 07:33:05;;;;;;;46.33;3.83;;;;;;;4.79;100.00;99951.16;5045479;28;20072;-67
2021/11/20 07:35:34;;;;;;;111.00;5.80;;;;;;;4.67;100.00;99948.25;5045428;28;20029;-68
2021/11/20 07:38:02;;;;;;;80.40;4.60;;;;;;;4.56;100.00;99954.03;5045337;28;20317;-68
2021/11/20 07:40:29;;;;;;;84.80;5.18;;;;;;;4.50;100.00;99950.41;5045326;28;20198;-68
2021/11/20 07:42:55;;;;;;;41.38;4.85;;;;;;;4.71;100.00;99944.84;5045275;28;20071;-68
2021/11/20 07:45:20;;;;;;;45.45;3.95;;;;;;;4.86;100.00;99946.94;5066417;28;20028;-66
2021/11/20 07:47:46;;;;;;;8.45;2.92;;;;;;;5.04;100.00;99947.41;5073364;28;20024;-66
2021/11/20 07:50:14;;;;;;;5.85;3.25;;;;;;;5.16;100.00;99945.06;5064510;28;20224;-66
2021/11/20 07:52:40;;;;;;;57.42;4.05;;;;;;;5.07;100.00;99934.41;5060905;28;20016;-66
2021/11/20 07:55:06;;;;;;;57.20;4.78;;;;;;;5.02;99.83;99944.75;5056550;28;20088;-66
2021/11/20 07:57:31;;;;;;;10.73;3.13;;;;;;;5.04;99.65;99947.41;5053035;28;20213;-66
2021/11/20 07:59:57;;;;;;;34.72;4.03;;;;;;;5.04;99.76;99942.19;5057930;28;20013;-67
2021/11/20 08:02:22;;;;;;;10.50;2.78;;;;;;;5.23;99.24;99939.16;5062244;28;20321;-67
2021/11/20 08:04:47;;;;;;;7.55;2.53;;;;;;;5.30;99.26;99983.69;5064746;28;20378;-67
2021/11/20 08:07:13;;;;;;;9.75;2.22;;;;;;;5.36;98.38;99912.44;5060147;28;20017;-67
2021/11/20 08:09:38;;;;;;;47.28;4.18;;;;;;;5.29;98.29;99908.84;5053122;28;20340;-67
2021/11/20 08:12:05;;;;;;;11.02;3.72;;;;;;;5.33;98.99;99904.56;5059618;28;20056;-67
2021/11/20 08:14:30;;;;;;;6.38;3.17;;;;;;;5.45;98.64;99907.44;5060611;28;20103;-66
2021/11/20 08:16:55;;;;;;;12.02;2.78;;;;;;;5.45;98.02;99899.59;5056872;28;20036;-67
2021/11/20 08:19:21;;;;;;;7.75;2.88;;;;;;;5.47;98.20;99901.38;5060679;28;20046;-70
2021/11/20 08:21:46;;;;;;;37.90;4.00;;;;;;;5.40;98.43;99890.78;5056336;28;20088;-68
2021/11/20 08:24:12;;;;;;;12.50;3.17;;;;;;;5.46;98.61;99894.41;5047647;28;20036;-68
2021/11/20 08:26:39;;;;;;;26.48;3.22;;;;;;;5.46;98.90;99893.53;5047275;28;20067;-68
2021/11/20 08:29:18;;;;;;;5.22;2.67;;;;;;;5.59;99.26;99896.41;5057895;28;20031;-68
2021/11/20 08:31:46;;;;;;;7.82;2.83;;;;;;;5.66;98.93;99887.84;5059478;28;20033;-68
2021/11/20 08:34:14;;;;;;;15.77;2.60;;;;;;;5.73;99.33;99894.09;5053721;28;20351;-68
2021/11/20 08:36:39;;;;;;;29.88;3.58;;;;;;;5.68;98.91;99885.28;5053362;28;20305;-67
2021/11/20 08:39:06;;;;;;;8.93;2.95;;;;;;;5.66;99.61;99887.00;5046648;28;20021;-68
2021/11/20 08:41:32;;;;;;;36.85;5.28;;;;;;;5.70;98.93;99889.66;5054669;28;20080;-68
2021/11/20 08:43:57;;;;;;;32.85;3.78;;;;;;;5.68;98.84;99885.28;5071196;28;20025;-68
2021/11/20 08:46:23;;;;;;;16.73;3.08;;;;;;;5.85;99.88;99884.78;5055142;28;20037;-68
2021/11/20 08:48:48;;;;;;;7.78;3.80;;;;;;;6.00;99.54;99878.97;5060310;28;20049;-68
2021/11/20 08:51:17;;;;;;;25.38;2.92;;;;;;;5.96;99.46;99871.94;5062701;28;20060;-68
2021/11/20 08:53:43;;;;;;;9.80;2.75;;;;;;;6.02;99.27;99869.44;5051588;28;20025;-68
2021/11/20 08:56:10;;;;;;;9.57;3.17;;;;;;;6.20;99.84;99883.69;5061990;28;20023;-68
2021/11/20 08:58:36;;;;;;;23.65;3.97;;;;;;;6.21;98.95;99874.13;5064907;28;20411;-68
2021/11/20 09:01:07;;;;;;;9.07;3.10;;;;;;;6.19;100.00;99875.81;5047747;28;20021;-68
2021/11/20 09:03:41;;;;;;;19.10;3.70;;;;;;;6.41;100.00;99877.97;5052606;28;20080;-68
2021/11/20 09:06:10;;;;;;;28.65;3.28;;;;;;;6.58;99.91;99866.03;5056823;28;20024;-68
2021/11/20 09:08:42;;;;;;;11.73;3.85;;;;;;;6.49;99.41;99865.91;5053652;28;20020;-68
2021/11/20 09:11:36;;;;;;;8.05;3.90;;;;;;;6.80;100.00;99867.25;5059763;28;20025;-68
2021/11/20 09:14:19;;;;;;;12.95;6.40;;;;;;;6.75;99.04;99859.34;5051514;28;20100;-68
2021/11/20 09:16:45;;;;;;;13.15;5.93;;;;;;;6.75;98.38;99856.72;5079153;28;20232;-68
2021/11/20 09:19:11;;;;;;;18.15;7.60;;;;;;;6.79;98.57;99865.47;5062241;28;20038;-68
2021/11/20 09:21:38;;;;;;;14.20;6.57;;;;;;;7.08;97.45;99858.97;5056119;28;20039;-68
2021/11/20 09:24:08;;;;;;;17.40;7.72;;;;;;;6.97;97.83;99856.19;5044841;28;20051;-68
2021/11/20 09:26:35;;;;;;;15.30;7.20;;;;;;;6.96;97.93;99859.63;5046244;28;20079;-68
2021/11/20 09:29:00;;;;;;;19.88;8.15;;;;;;;7.02;99.09;99849.25;5055096;28;20077;-68
2021/11/20 09:31:29;;;;;;;21.70;9.05;;;;;;;6.87;98.40;99843.81;5052415;28;20036;-68
2021/11/20 09:33:56;;;;;;;18.08;8.98;;;;;;;7.10;98.28;99855.50;5053607;28;20039;-68
2021/11/20 09:36:22;;;;;;;16.17;8.50;;;;;;;7.39;97.66;99856.75;5052748;28;20065;-68
2021/11/20 09:38:49;;;;;;;18.40;8.82;;;;;;;7.40;96.09;99848.03;5053366;28;20032;-68
2021/11/20 09:41:19;;;;;;;15.50;6.88;;;;;;;7.19;96.64;99845.16;5052785;28;20293;-68
2021/11/20 09:43:52;;;;;;;16.90;8.13;;;;;;;7.12;97.50;99850.28;5052374;28;20225;-68
2021/11/20 09:46:23;;;;;;;16.52;8.52;;;;;;;7.16;97.94;99858.19;5052508;28;20075;-68
2021/11/20 09:48:59;;;;;;;14.85;7.30;;;;;;;7.12;97.68;99851.13;5054692;28;20356;-68
2021/11/20 09:51:40;;;;;;;17.05;8.52;;;;;;;7.41;97.18;99848.91;5053057;28;20100;-68
2021/11/20 09:54:09;;;;;;;18.65;9.25;;;;;;;7.38;96.41;99849.75;5050610;28;20040;-68
2021/11/20 09:56:49;;;;;;;15.90;8.13;;;;;;;7.50;96.13;99854.28;5063065;28;20025;-68
2021/11/20 09:59:38;;;;;;;13.85;8.13;;;;;;;7.42;96.33;99843.69;5050588;28;20017;-68
2021/11/20 10:02:18;;;;;;;17.73;8.77;;;;;;;7.53;96.86;99839.44;5060892;28;20067;-68
2021/11/20 10:05:23;;;;;;;17.23;7.75;;;;;;;7.69;96.52;99830.91;5053706;28;20033;-68
2021/11/20 10:08:04;;;;;;;15.30;8.10;;;;;;;7.94;94.92;99832.91;5054189;28;20054;-68
2021/11/20 10:10:49;;;;;;;19.25;9.73;;;;;;;7.79;96.05;99838.00;5049643;28;20049;-68
2021/11/20 10:13:26;;;;;;;16.92;8.88;;;;;;;7.77;95.72;99834.50;5064834;28;20025;-68
2021/11/20 10:15:59;;;;;;;16.08;8.63;;;;;;;7.80;95.81;99823.16;5066844;28;20040;-68
2021/11/20 10:18:53;;;;;;;18.83;10.18;;;;;;;7.71;97.02;99829.19;5066598;28;20039;-68
2021/11/20 10:21:27;;;;;;;18.98;9.63;;;;;;;7.93;94.87;99814.56;5056039;28;20033;-68
2021/11/20 10:24:13;;;;;;;16.48;8.10;;;;;;;7.96;94.83;99820.72;5064233;28;20048;-68
2021/11/20 10:26:44;;;;;;;18.05;9.43;;;;;;;7.90;95.39;99815.41;5056325;28;20027;-68
2021/11/20 10:29:27;;;;;;;18.13;9.55;;;;;;;7.94;94.99;99817.19;5061230;28;20017;-68
2021/11/20 10:32:10;;;;;;;;;;;;;;;7.99;94.42;99805.00;5059972;28;20047;-68
2021/11/20 10:34:55;;;;;;;18.85;9.68;;;;;;;7.96;94.96;99799.75;5067084;28;19946;-68
2021/11/20 10:37:35;;;;;;;20.17;10.00;;;;;;;8.00;95.59;99806.75;5075461;28;20312;-68
2021/11/20 10:40:32;;;;;;;22.23;10.07;;;;;;;8.12;96.72;99799.00;5063682;28;20028;-68
2021/11/20 10:43:17;;;;;;;17.48;9.25;;;;;;;8.16;95.85;99797.28;5071340;28;20059;-68
2021/11/20 10:45:53;;;;;;;21.45;9.25;;;;;;;8.04;94.98;99792.81;5048702;28;20092;-68
2021/11/20 10:48:24;;;;;;;24.42;10.18;;;;;;;8.10;95.43;99786.75;5059820;28;20081;-68
2021/11/20 10:51:10;;;;;;;22.95;10.57;;;;;;;7.98;96.35;99779.63;5057335;28;20025;-68
2021/11/20 10:53:56;;;;;;;23.33;11.40;;;;;;;8.04;96.79;99778.84;5063411;28;20020;-68
2021/11/20 10:56:24;;;;;;;20.40;10.07;;;;;;;8.04;96.48;99777.06;5054723;28;20052;-68
2021/11/20 10:59:24;;;;;;;24.58;11.95;;;;;;;8.00;96.69;99774.41;5057887;28;20028;-68
2021/11/20 11:02:10;;;;;;;23.58;11.70;;;;;;;8.13;96.21;99766.66;5052260;28;20250;-68
2021/11/20 11:05:11;;;;;;;24.30;12.35;;;;;;;8.24;96.48;99759.81;5062887;28;20321;-68
2021/11/20 11:07:44;;;;;;;27.05;11.88;;;;;;;8.40;95.54;99756.44;5042096;28;20036;-68
2021/11/20 11:10:20;;;;;;;20.98;10.50;;;;;;;8.38;94.40;99747.66;5065913;28;20025;-68
2021/11/20 11:12:57;;;;;;;29.25;11.75;;;;;;;8.46;94.35;99746.00;5065876;28;20328;-68
2021/11/20 11:15:30;;;;;;;22.08;11.13;;;;;;;8.44;94.25;99738.97;5065748;28;20053;-68
2021/11/20 11:18:29;;;;;;;25.90;13.07;;;;;;;8.69;93.12;99733.88;5065849;28;20117;-68
2021/11/20 11:21:32;;;;;;;26.58;13.45;;;;;;;8.83;92.33;99732.19;5052431;28;20372;-68
2021/11/20 11:24:00;;;;;;;;;;;;;;;8.90;91.91;99726.97;5053318;28;20029;-68
2021/11/20 11:26:29;;;;;;;21.42;11.73;;;;;;;8.97;90.93;99728.75;5059500;28;19909;-68
2021/11/20 11:28:57;;;;;;;21.45;11.63;;;;;;;9.29;88.75;99727.13;5054006;28;20017;-68
2021/11/20 11:31:29;;;;;;;23.30;11.90;;;;;;;9.08;88.78;99717.41;5053521;28;20213;-68
2021/11/20 11:34:08;;;;;;;23.20;11.43;;;;;;;8.87;89.64;99711.22;5059778;28;20048;-68